sensor_id;sensor_type;location;lat;lon;timestamp;temperature;humidity
68701;DHT22;55682;51.114;5.882;2023-04-15T00:00:45;9.32;60.68
68701;DHT22;55682;51.114;5.882;2023-04-15T00:03:11;9.31;60.65
68701;DHT22;55682;51.114;5.882;2023-04-15T00:05:36;9.24;61.05
68701;DHT22;55682;51.114;5.882;2023-04-15T00:08:02;9.21;61.38
68701;DHT22;55682;51.114;5.882;2023-04-15T00:10:28;9.19;61.45
68701;DHT22;55682;51.114;5.882;2023-04-15T00:12:54;9.15;61.76
68701;DHT22;55682;51.114;5.882;2023-04-15T00:15:20;9.10;62.14
68701;DHT22;55682;51.114;5.882;2023-04-15T00:17:45;9.04;62.50
68701;DHT22;55682;51.114;5.882;2023-04-15T00:20:11;8.89;63.09
68701;DHT22;55682;51.114;5.882;2023-04-15T00:22:37;8.76;63.59
68701;DHT22;55682;51.114;5.882;2023-04-15T00:25:02;8.64;64.29
68701;DHT22;55682;51.114;5.882;2023-04-15T00:27:28;8.52;65.10
68701;DHT22;55682;51.114;5.882;2023-04-15T00:29:54;8.49;65.46
68701;DHT22;55682;51.114;5.882;2023-04-15T00:32:20;8.52;65.63
68701;DHT22;55682;51.114;5.882;2023-04-15T00:34:46;8.59;65.47
68701;DHT22;55682;51.114;5.882;2023-04-15T00:37:12;8.60;65.37
68701;DHT22;55682;51.114;5.882;2023-04-15T00:39:38;8.61;65.17
68701;DHT22;55682;51.114;5.882;2023-04-15T00:42:04;8.70;65.24
68701;DHT22;55682;51.114;5.882;2023-04-15T00:44:30;8.80;65.24
68701;DHT22;55682;51.114;5.882;2023-04-15T00:46:56;8.89;64.76
68701;DHT22;55682;51.114;5.882;2023-04-15T00:49:23;8.93;64.42
68701;DHT22;55682;51.114;5.882;2023-04-15T00:51:49;8.97;64.07
68701;DHT22;55682;51.114;5.882;2023-04-15T00:54:15;9.01;64.05
68701;DHT22;55682;51.114;5.882;2023-04-15T00:56:41;9.01;63.85
68701;DHT22;55682;51.114;5.882;2023-04-15T00:59:08;9.00;63.87
68701;DHT22;55682;51.114;5.882;2023-04-15T01:01:35;9.00;63.80
68701;DHT22;55682;51.114;5.882;2023-04-15T01:04:02;8.91;63.87
68701;DHT22;55682;51.114;5.882;2023-04-15T01:06:29;8.78;64.34
68701;DHT22;55682;51.114;5.882;2023-04-15T01:08:56;8.62;64.79
68701;DHT22;55682;51.114;5.882;2023-04-15T01:11:22;8.58;65.16
68701;DHT22;55682;51.114;5.882;2023-04-15T01:13:50;8.59;65.24
68701;DHT22;55682;51.114;5.882;2023-04-15T01:16:18;8.56;65.31
68701;DHT22;55682;51.114;5.882;2023-04-15T01:18:43;8.50;65.50
68701;DHT22;55682;51.114;5.882;2023-04-15T01:21:09;8.37;65.93
68701;DHT22;55682;51.114;5.882;2023-04-15T01:23:37;8.23;66.56
68701;DHT22;55682;51.114;5.882;2023-04-15T01:26:03;8.19;66.95
68701;DHT22;55682;51.114;5.882;2023-04-15T01:28:30;8.20;67.04
68701;DHT22;55682;51.114;5.882;2023-04-15T01:31:10;8.11;67.18
68701;DHT22;55682;51.114;5.882;2023-04-15T01:33:37;8.06;67.41
68701;DHT22;55682;51.114;5.882;2023-04-15T01:36:07;8.03;67.33
68701;DHT22;55682;51.114;5.882;2023-04-15T01:38:35;8.05;67.25
68701;DHT22;55682;51.114;5.882;2023-04-15T01:41:01;8.08;66.94
68701;DHT22;55682;51.114;5.882;2023-04-15T01:43:28;8.07;66.98
68701;DHT22;55682;51.114;5.882;2023-04-15T01:45:54;8.05;67.17
68701;DHT22;55682;51.114;5.882;2023-04-15T01:48:21;8.02;67.45
68701;DHT22;55682;51.114;5.882;2023-04-15T01:50:47;8.04;67.41
68701;DHT22;55682;51.114;5.882;2023-04-15T01:53:13;8.06;67.27
68701;DHT22;55682;51.114;5.882;2023-04-15T01:55:39;8.11;66.99
68701;DHT22;55682;51.114;5.882;2023-04-15T01:58:05;8.11;66.89
68701;DHT22;55682;51.114;5.882;2023-04-15T02:00:32;8.07;67.19
68701;DHT22;55682;51.114;5.882;2023-04-15T02:02:58;8.03;67.49
68701;DHT22;55682;51.114;5.882;2023-04-15T02:05:24;7.94;67.88
68701;DHT22;55682;51.114;5.882;2023-04-15T02:07:50;7.87;68.23
68701;DHT22;55682;51.114;5.882;2023-04-15T02:10:16;7.85;68.39
68701;DHT22;55682;51.114;5.882;2023-04-15T02:12:42;7.77;68.72
68701;DHT22;55682;51.114;5.882;2023-04-15T02:15:08;7.71;68.97
68701;DHT22;55682;51.114;5.882;2023-04-15T02:17:35;7.64;69.20
68701;DHT22;55682;51.114;5.882;2023-04-15T02:20:01;7.41;70.48
68701;DHT22;55682;51.114;5.882;2023-04-15T02:22:26;7.33;70.52
68701;DHT22;55682;51.114;5.882;2023-04-15T02:24:52;7.31;70.77
68701;DHT22;55682;51.114;5.882;2023-04-15T02:27:17;7.30;70.78
68701;DHT22;55682;51.114;5.882;2023-04-15T02:29:44;7.28;70.90
68701;DHT22;55682;51.114;5.882;2023-04-15T02:32:11;7.22;71.33
68701;DHT22;55682;51.114;5.882;2023-04-15T02:34:38;7.23;71.26
68701;DHT22;55682;51.114;5.882;2023-04-15T02:37:08;7.20;71.42
68701;DHT22;55682;51.114;5.882;2023-04-15T02:39:34;7.19;71.45
68701;DHT22;55682;51.114;5.882;2023-04-15T02:42:00;7.22;71.57
68701;DHT22;55682;51.114;5.882;2023-04-15T02:44:27;7.22;71.56
68701;DHT22;55682;51.114;5.882;2023-04-15T02:46:57;7.26;71.42
68701;DHT22;55682;51.114;5.882;2023-04-15T02:49:24;7.24;71.50
68701;DHT22;55682;51.114;5.882;2023-04-15T02:51:50;7.26;71.48
68701;DHT22;55682;51.114;5.882;2023-04-15T02:54:21;7.30;71.20
68701;DHT22;55682;51.114;5.882;2023-04-15T02:56:50;7.34;71.08
68701;DHT22;55682;51.114;5.882;2023-04-15T02:59:19;7.37;70.83
68701;DHT22;55682;51.114;5.882;2023-04-15T03:01:45;7.40;70.71
68701;DHT22;55682;51.114;5.882;2023-04-15T03:04:11;7.44;70.43
68701;DHT22;55682;51.114;5.882;2023-04-15T03:06:37;7.46;70.50
68701;DHT22;55682;51.114;5.882;2023-04-15T03:09:03;7.50;70.30
68701;DHT22;55682;51.114;5.882;2023-04-15T03:11:32;7.50;70.24
68701;DHT22;55682;51.114;5.882;2023-04-15T03:13:59;7.49;69.89
68701;DHT22;55682;51.114;5.882;2023-04-15T03:16:30;7.48;69.56
68701;DHT22;55682;51.114;5.882;2023-04-15T03:18:57;7.45;69.30
68701;DHT22;55682;51.114;5.882;2023-04-15T03:21:23;7.43;69.20
68701;DHT22;55682;51.114;5.882;2023-04-15T03:23:49;7.37;69.45
68701;DHT22;55682;51.114;5.882;2023-04-15T03:26:28;7.34;69.79
68701;DHT22;55682;51.114;5.882;2023-04-15T03:28:58;7.33;70.03
68701;DHT22;55682;51.114;5.882;2023-04-15T03:31:23;7.30;69.89
68701;DHT22;55682;51.114;5.882;2023-04-15T03:33:49;7.28;69.91
68701;DHT22;55682;51.114;5.882;2023-04-15T03:36:15;7.24;69.79
68701;DHT22;55682;51.114;5.882;2023-04-15T03:38:41;7.20;69.91
68701;DHT22;55682;51.114;5.882;2023-04-15T03:41:07;7.16;70.54
68701;DHT22;55682;51.114;5.882;2023-04-15T03:43:34;7.11;70.92
68701;DHT22;55682;51.114;5.882;2023-04-15T03:46:00;7.09;71.18
68701;DHT22;55682;51.114;5.882;2023-04-15T03:48:26;7.08;71.33
68701;DHT22;55682;51.114;5.882;2023-04-15T03:50:51;7.07;71.19
68701;DHT22;55682;51.114;5.882;2023-04-15T03:53:17;7.04;71.18
68701;DHT22;55682;51.114;5.882;2023-04-15T03:55:43;7.04;71.07
68701;DHT22;55682;51.114;5.882;2023-04-15T03:58:09;7.02;71.20
68701;DHT22;55682;51.114;5.882;2023-04-15T04:00:40;6.99;71.34
68701;DHT22;55682;51.114;5.882;2023-04-15T04:03:06;6.98;71.43
68701;DHT22;55682;51.114;5.882;2023-04-15T04:05:32;6.96;71.48
68701;DHT22;55682;51.114;5.882;2023-04-15T04:07:58;6.96;71.55
68701;DHT22;55682;51.114;5.882;2023-04-15T04:10:23;6.97;71.57
68701;DHT22;55682;51.114;5.882;2023-04-15T04:12:49;6.97;71.42
68701;DHT22;55682;51.114;5.882;2023-04-15T04:15:14;6.96;71.20
68701;DHT22;55682;51.114;5.882;2023-04-15T04:17:40;6.93;71.17
68701;DHT22;55682;51.114;5.882;2023-04-15T04:20:07;6.87;71.19
68701;DHT22;55682;51.114;5.882;2023-04-15T04:22:39;6.86;71.35
68701;DHT22;55682;51.114;5.882;2023-04-15T04:25:05;6.85;71.45
68701;DHT22;55682;51.114;5.882;2023-04-15T04:27:33;6.85;71.42
68701;DHT22;55682;51.114;5.882;2023-04-15T04:29:59;6.84;71.45
68701;DHT22;55682;51.114;5.882;2023-04-15T04:32:25;6.82;71.51
68701;DHT22;55682;51.114;5.882;2023-04-15T04:34:50;6.83;71.48
68701;DHT22;55682;51.114;5.882;2023-04-15T04:37:16;6.81;71.42
68701;DHT22;55682;51.114;5.882;2023-04-15T04:39:41;6.80;71.37
68701;DHT22;55682;51.114;5.882;2023-04-15T04:42:07;6.76;71.65
68701;DHT22;55682;51.114;5.882;2023-04-15T04:44:33;6.80;71.53
68701;DHT22;55682;51.114;5.882;2023-04-15T04:46:58;6.81;71.60
68701;DHT22;55682;51.114;5.882;2023-04-15T04:49:24;6.81;71.61
68701;DHT22;55682;51.114;5.882;2023-04-15T04:51:50;6.84;71.53
68701;DHT22;55682;51.114;5.882;2023-04-15T04:54:15;6.84;71.61
68701;DHT22;55682;51.114;5.882;2023-04-15T04:56:41;6.75;72.08
68701;DHT22;55682;51.114;5.882;2023-04-15T04:59:07;6.67;72.48
68701;DHT22;55682;51.114;5.882;2023-04-15T05:01:33;6.68;72.74
68701;DHT22;55682;51.114;5.882;2023-04-15T05:03:59;6.69;72.87
68701;DHT22;55682;51.114;5.882;2023-04-15T05:06:25;6.80;72.75
68701;DHT22;55682;51.114;5.882;2023-04-15T05:08:52;6.91;72.83
68701;DHT22;55682;51.114;5.882;2023-04-15T05:11:17;7.18;72.25
68701;DHT22;55682;51.114;5.882;2023-04-15T05:13:43;7.31;71.53
68701;DHT22;55682;51.114;5.882;2023-04-15T05:16:08;7.56;71.34
68701;DHT22;55682;51.114;5.882;2023-04-15T05:18:34;8.02;70.25
68701;DHT22;55682;51.114;5.882;2023-04-15T05:21:00;8.48;68.74
68701;DHT22;55682;51.114;5.882;2023-04-15T05:23:26;9.10;67.54
68701;DHT22;55682;51.114;5.882;2023-04-15T05:25:52;9.97;65.24
68701;DHT22;55682;51.114;5.882;2023-04-15T05:28:18;10.82;62.34
68701;DHT22;55682;51.114;5.882;2023-04-15T05:30:43;11.54;59.94
68701;DHT22;55682;51.114;5.882;2023-04-15T05:33:09;12.14;57.42
68701;DHT22;55682;51.114;5.882;2023-04-15T05:35:35;12.44;55.97
68701;DHT22;55682;51.114;5.882;2023-04-15T05:38:00;12.51;55.24
68701;DHT22;55682;51.114;5.882;2023-04-15T05:40:26;12.46;55.24
68701;DHT22;55682;51.114;5.882;2023-04-15T05:42:52;12.35;55.12
68701;DHT22;55682;51.114;5.882;2023-04-15T05:45:18;12.07;55.78
68701;DHT22;55682;51.114;5.882;2023-04-15T05:47:43;11.82;56.48
68701;DHT22;55682;51.114;5.882;2023-04-15T05:50:09;11.61;57.29
68701;DHT22;55682;51.114;5.882;2023-04-15T05:52:35;11.55;57.62
68701;DHT22;55682;51.114;5.882;2023-04-15T05:55:01;11.54;57.66
68701;DHT22;55682;51.114;5.882;2023-04-15T05:57:26;11.52;57.64
68701;DHT22;55682;51.114;5.882;2023-04-15T05:59:52;11.58;57.48
68701;DHT22;55682;51.114;5.882;2023-04-15T06:02:18;11.54;57.24
68701;DHT22;55682;51.114;5.882;2023-04-15T06:04:43;11.40;57.37
68701;DHT22;55682;51.114;5.882;2023-04-15T06:07:09;11.16;57.96
68701;DHT22;55682;51.114;5.882;2023-04-15T06:09:35;10.89;58.82
68701;DHT22;55682;51.114;5.882;2023-04-15T06:12:01;10.70;59.71
68701;DHT22;55682;51.114;5.882;2023-04-15T06:14:27;10.57;60.49
68701;DHT22;55682;51.114;5.882;2023-04-15T06:16:52;10.54;60.94
68701;DHT22;55682;51.114;5.882;2023-04-15T06:19:18;10.62;61.17
68701;DHT22;55682;51.114;5.882;2023-04-15T06:21:45;10.73;61.07
68701;DHT22;55682;51.114;5.882;2023-04-15T06:24:11;10.99;61.04
68701;DHT22;55682;51.114;5.882;2023-04-15T06:26:36;11.38;60.08
68701;DHT22;55682;51.114;5.882;2023-04-15T06:29:02;11.86;59.40
68701;DHT22;55682;51.114;5.882;2023-04-15T06:31:28;12.55;57.96
68701;DHT22;55682;51.114;5.882;2023-04-15T06:33:53;13.45;55.88
68701;DHT22;55682;51.114;5.882;2023-04-15T06:36:19;14.17;52.99
68701;DHT22;55682;51.114;5.882;2023-04-15T06:38:44;14.57;51.69
68701;DHT22;55682;51.114;5.882;2023-04-15T06:41:11;14.92;50.66
68701;DHT22;55682;51.114;5.882;2023-04-15T06:43:36;15.00;50.06
68701;DHT22;55682;51.114;5.882;2023-04-15T06:46:02;15.19;50.25
68701;DHT22;55682;51.114;5.882;2023-04-15T06:48:27;15.75;49.56
68701;DHT22;55682;51.114;5.882;2023-04-15T06:50:53;16.35;47.99
68701;DHT22;55682;51.114;5.882;2023-04-15T06:53:19;17.05;46.76
68701;DHT22;55682;51.114;5.882;2023-04-15T06:55:46;17.65;45.28
68701;DHT22;55682;51.114;5.882;2023-04-15T06:58:11;18.22;43.71
68701;DHT22;55682;51.114;5.882;2023-04-15T07:00:37;18.36;43.15
68701;DHT22;55682;51.114;5.882;2023-04-15T07:03:04;18.56;42.88
68701;DHT22;55682;51.114;5.882;2023-04-15T07:05:30;18.61;42.55
68701;DHT22;55682;51.114;5.882;2023-04-15T07:07:56;18.66;42.95
68701;DHT22;55682;51.114;5.882;2023-04-15T07:10:22;18.91;42.36
68701;DHT22;55682;51.114;5.882;2023-04-15T07:12:48;19.05;42.39
68701;DHT22;55682;51.114;5.882;2023-04-15T07:15:15;19.10;42.16
68701;DHT22;55682;51.114;5.882;2023-04-15T07:17:41;19.29;41.98
68701;DHT22;55682;51.114;5.882;2023-04-15T07:20:08;19.67;41.07
68701;DHT22;55682;51.114;5.882;2023-04-15T07:22:33;19.67;41.19
68701;DHT22;55682;51.114;5.882;2023-04-15T07:24:59;20.25;40.10
68701;DHT22;55682;51.114;5.882;2023-04-15T07:27:25;20.62;39.11
68701;DHT22;55682;51.114;5.882;2023-04-15T07:29:52;20.12;39.99
68701;DHT22;55682;51.114;5.882;2023-04-15T07:32:18;20.15;40.19
68701;DHT22;55682;51.114;5.882;2023-04-15T07:34:44;20.01;39.58
68701;DHT22;55682;51.114;5.882;2023-04-15T07:37:10;20.02;40.35
68701;DHT22;55682;51.114;5.882;2023-04-15T07:39:36;20.32;39.62
68701;DHT22;55682;51.114;5.882;2023-04-15T07:42:02;20.34;38.59
68701;DHT22;55682;51.114;5.882;2023-04-15T07:44:28;20.20;39.39
68701;DHT22;55682;51.114;5.882;2023-04-15T07:46:56;19.84;40.10
68701;DHT22;55682;51.114;5.882;2023-04-15T07:49:21;19.70;40.51
68701;DHT22;55682;51.114;5.882;2023-04-15T07:51:48;20.04;40.62
68701;DHT22;55682;51.114;5.882;2023-04-15T07:54:14;20.80;38.98
68701;DHT22;55682;51.114;5.882;2023-04-15T07:56:40;21.25;38.38
68701;DHT22;55682;51.114;5.882;2023-04-15T07:59:06;21.75;37.22
68701;DHT22;55682;51.114;5.882;2023-04-15T08:01:33;21.63;36.56
68701;DHT22;55682;51.114;5.882;2023-04-15T08:03:59;21.70;36.65
68701;DHT22;55682;51.114;5.882;2023-04-15T08:06:25;21.55;36.47
68701;DHT22;55682;51.114;5.882;2023-04-15T08:08:52;21.57;36.89
68701;DHT22;55682;51.114;5.882;2023-04-15T08:11:19;21.73;36.14
68701;DHT22;55682;51.114;5.882;2023-04-15T08:13:46;21.33;36.88
68701;DHT22;55682;51.114;5.882;2023-04-15T08:16:25;20.30;38.86
68701;DHT22;55682;51.114;5.882;2023-04-15T08:18:54;20.04;39.42
68701;DHT22;55682;51.114;5.882;2023-04-15T08:21:21;20.32;37.30
68701;DHT22;55682;51.114;5.882;2023-04-15T08:23:49;20.55;35.59
68701;DHT22;55682;51.114;5.882;2023-04-15T08:26:15;20.41;36.38
68701;DHT22;55682;51.114;5.882;2023-04-15T08:28:42;20.09;37.33
68701;DHT22;55682;51.114;5.882;2023-04-15T08:31:08;19.88;38.56
68701;DHT22;55682;51.114;5.882;2023-04-15T08:33:34;19.99;38.30
68701;DHT22;55682;51.114;5.882;2023-04-15T08:36:00;19.60;38.09
68701;DHT22;55682;51.114;5.882;2023-04-15T08:38:25;19.38;39.36
68701;DHT22;55682;51.114;5.882;2023-04-15T08:40:51;19.42;39.28
68701;DHT22;55682;51.114;5.882;2023-04-15T08:43:22;19.85;38.71
68701;DHT22;55682;51.114;5.882;2023-04-15T08:45:51;20.33;38.08
68701;DHT22;55682;51.114;5.882;2023-04-15T08:48:18;20.93;36.55
68701;DHT22;55682;51.114;5.882;2023-04-15T08:50:45;21.01;35.80
68701;DHT22;55682;51.114;5.882;2023-04-15T08:53:12;21.04;36.02
68701;DHT22;55682;51.114;5.882;2023-04-15T08:55:43;21.33;35.64
68701;DHT22;55682;51.114;5.882;2023-04-15T08:58:11;21.61;34.88
68701;DHT22;55682;51.114;5.882;2023-04-15T09:00:38;21.50;34.76
68701;DHT22;55682;51.114;5.882;2023-04-15T09:03:05;21.80;35.31
68701;DHT22;55682;51.114;5.882;2023-04-15T09:05:34;22.60;33.87
68701;DHT22;55682;51.114;5.882;2023-04-15T09:08:01;23.45;32.29
68701;DHT22;55682;51.114;5.882;2023-04-15T09:10:27;23.53;31.08
68701;DHT22;55682;51.114;5.882;2023-04-15T09:12:54;23.23;31.57
68701;DHT22;55682;51.114;5.882;2023-04-15T09:15:19;22.88;32.14
68701;DHT22;55682;51.114;5.882;2023-04-15T09:17:45;22.79;32.01
68701;DHT22;55682;51.114;5.882;2023-04-15T09:20:14;22.48;32.15
68701;DHT22;55682;51.114;5.882;2023-04-15T09:22:42;22.21;32.84
68701;DHT22;55682;51.114;5.882;2023-04-15T09:27:49;22.62;31.51
68701;DHT22;55682;51.114;5.882;2023-04-15T09:30:16;22.75;31.12
68701;DHT22;55682;51.114;5.882;2023-04-15T09:35:19;22.37;32.12
68701;DHT22;55682;51.114;5.882;2023-04-15T09:37:46;22.53;31.51
68701;DHT22;55682;51.114;5.882;2023-04-15T09:40:12;22.76;31.35
68701;DHT22;55682;51.114;5.882;2023-04-15T09:42:56;23.27;30.48
68701;DHT22;55682;51.114;5.882;2023-04-15T09:45:22;23.51;29.78
68701;DHT22;55682;51.114;5.882;2023-04-15T09:47:48;23.66;29.46
68701;DHT22;55682;51.114;5.882;2023-04-15T09:50:16;23.81;29.40
68701;DHT22;55682;51.114;5.882;2023-04-15T09:52:43;23.86;29.12
68701;DHT22;55682;51.114;5.882;2023-04-15T09:55:10;23.71;29.49
68701;DHT22;55682;51.114;5.882;2023-04-15T09:57:37;23.84;29.51
68701;DHT22;55682;51.114;5.882;2023-04-15T10:00:04;24.03;29.40
68701;DHT22;55682;51.114;5.882;2023-04-15T10:02:36;24.04;29.29
68701;DHT22;55682;51.114;5.882;2023-04-15T10:05:02;24.14;28.58
68701;DHT22;55682;51.114;5.882;2023-04-15T10:07:28;24.28;28.77
68701;DHT22;55682;51.114;5.882;2023-04-15T10:09:55;24.59;28.06
68701;DHT22;55682;51.114;5.882;2023-04-15T10:12:23;24.66;26.38
68701;DHT22;55682;51.114;5.882;2023-04-15T10:15:03;24.40;26.84
68701;DHT22;55682;51.114;5.882;2023-04-15T10:17:32;24.46;26.20
68701;DHT22;55682;51.114;5.882;2023-04-15T10:20:00;24.60;26.12
68701;DHT22;55682;51.114;5.882;2023-04-15T10:22:28;24.89;25.52
68701;DHT22;55682;51.114;5.882;2023-04-15T10:24:58;25.02;25.16
68701;DHT22;55682;51.114;5.882;2023-04-15T10:27:25;25.04;24.55
68701;DHT22;55682;51.114;5.882;2023-04-15T10:29:53;24.95;25.21
68701;DHT22;55682;51.114;5.882;2023-04-15T10:32:20;25.36;25.16
68701;DHT22;55682;51.114;5.882;2023-04-15T10:34:48;25.91;23.79
68701;DHT22;55682;51.114;5.882;2023-04-15T10:37:20;26.03;23.17
68701;DHT22;55682;51.114;5.882;2023-04-15T10:39:46;25.94;23.57
68701;DHT22;55682;51.114;5.882;2023-04-15T10:42:18;26.11;23.46
68701;DHT22;55682;51.114;5.882;2023-04-15T10:44:51;26.19;23.37
68701;DHT22;55682;51.114;5.882;2023-04-15T10:47:21;25.91;23.20
68701;DHT22;55682;51.114;5.882;2023-04-15T10:49:57;25.69;24.00
68701;DHT22;55682;51.114;5.882;2023-04-15T10:52:27;25.87;23.94
68701;DHT22;55682;51.114;5.882;2023-04-15T10:55:18;26.07;22.76
68701;DHT22;55682;51.114;5.882;2023-04-15T10:57:45;25.89;23.35
68701;DHT22;55682;51.114;5.882;2023-04-15T11:00:14;25.95;23.72
68701;DHT22;55682;51.114;5.882;2023-04-15T11:02:46;26.04;23.34
68701;DHT22;55682;51.114;5.882;2023-04-15T11:05:14;25.50;24.25
68701;DHT22;55682;51.114;5.882;2023-04-15T11:12:44;24.12;25.58
68701;DHT22;55682;51.114;5.882;2023-04-15T11:17:51;23.90;26.81
68701;DHT22;55682;51.114;5.882;2023-04-15T11:20:17;23.55;27.38
68701;DHT22;55682;51.114;5.882;2023-04-15T11:22:47;22.86;28.71
68701;DHT22;55682;51.114;5.882;2023-04-15T11:25:28;22.52;30.11
68701;DHT22;55682;51.114;5.882;2023-04-15T11:27:54;22.90;28.86
68701;DHT22;55682;51.114;5.882;2023-04-15T11:30:23;22.70;28.62
68701;DHT22;55682;51.114;5.882;2023-04-15T11:32:50;22.24;29.65
68701;DHT22;55682;51.114;5.882;2023-04-15T11:35:17;22.26;30.41
68701;DHT22;55682;51.114;5.882;2023-04-15T11:37:45;22.62;30.29
68701;DHT22;55682;51.114;5.882;2023-04-15T11:40:11;23.07;29.77
68701;DHT22;55682;51.114;5.882;2023-04-15T11:42:38;23.32;29.27
68701;DHT22;55682;51.114;5.882;2023-04-15T11:45:11;23.67;28.72
68701;DHT22;55682;51.114;5.882;2023-04-15T11:47:38;23.62;28.78
68701;DHT22;55682;51.114;5.882;2023-04-15T11:50:16;23.29;29.45
68701;DHT22;55682;51.114;5.882;2023-04-15T11:53:00;23.07;29.90
68701;DHT22;55682;51.114;5.882;2023-04-15T11:55:28;23.08;29.92
68701;DHT22;55682;51.114;5.882;2023-04-15T11:58:12;23.22;30.41
68701;DHT22;55682;51.114;5.882;2023-04-15T12:00:40;23.34;29.94
68701;DHT22;55682;51.114;5.882;2023-04-15T12:03:28;23.38;29.69
68701;DHT22;55682;51.114;5.882;2023-04-15T12:11:17;22.64;30.79
68701;DHT22;55682;51.114;5.882;2023-04-15T12:13:45;22.28;31.98
68701;DHT22;55682;51.114;5.882;2023-04-15T12:16:11;22.31;31.86
68701;DHT22;55682;51.114;5.882;2023-04-15T12:18:37;22.18;32.29
68701;DHT22;55682;51.114;5.882;2023-04-15T12:21:10;22.07;33.04
68701;DHT22;55682;51.114;5.882;2023-04-15T12:23:37;22.07;33.06
68701;DHT22;55682;51.114;5.882;2023-04-15T12:26:06;21.96;32.93
68701;DHT22;55682;51.114;5.882;2023-04-15T12:28:35;21.95;32.95
68701;DHT22;55682;51.114;5.882;2023-04-15T12:31:11;21.87;33.71
68701;DHT22;55682;51.114;5.882;2023-04-15T12:33:38;21.72;34.27
68701;DHT22;55682;51.114;5.882;2023-04-15T12:36:04;21.57;34.15
68701;DHT22;55682;51.114;5.882;2023-04-15T12:38:30;21.33;34.60
68701;DHT22;55682;51.114;5.882;2023-04-15T12:40:58;21.13;34.82
68701;DHT22;55682;51.114;5.882;2023-04-15T12:43:24;21.02;34.47
68701;DHT22;55682;51.114;5.882;2023-04-15T12:45:50;20.98;34.66
68701;DHT22;55682;51.114;5.882;2023-04-15T12:48:16;20.84;35.13
68701;DHT22;55682;51.114;5.882;2023-04-15T12:50:41;20.87;34.77
68701;DHT22;55682;51.114;5.882;2023-04-15T12:53:07;20.68;35.68
68701;DHT22;55682;51.114;5.882;2023-04-15T12:55:33;20.63;36.27
68701;DHT22;55682;51.114;5.882;2023-04-15T12:57:59;20.56;36.76
68701;DHT22;55682;51.114;5.882;2023-04-15T13:00:24;20.51;37.35
68701;DHT22;55682;51.114;5.882;2023-04-15T13:02:50;20.61;37.35
68701;DHT22;55682;51.114;5.882;2023-04-15T13:05:15;20.71;37.06
68701;DHT22;55682;51.114;5.882;2023-04-15T13:07:41;20.78;36.63
68701;DHT22;55682;51.114;5.882;2023-04-15T13:10:07;20.94;36.47
68701;DHT22;55682;51.114;5.882;2023-04-15T13:12:33;20.99;35.68
68701;DHT22;55682;51.114;5.882;2023-04-15T13:15:02;20.83;35.18
68701;DHT22;55682;51.114;5.882;2023-04-15T13:17:28;20.70;35.46
68701;DHT22;55682;51.114;5.882;2023-04-15T13:19:54;20.74;35.37
68701;DHT22;55682;51.114;5.882;2023-04-15T13:22:19;20.89;35.31
68701;DHT22;55682;51.114;5.882;2023-04-15T13:24:45;21.01;34.86
68701;DHT22;55682;51.114;5.882;2023-04-15T13:27:11;21.01;35.02
68701;DHT22;55682;51.114;5.882;2023-04-15T13:29:37;21.06;35.13
68701;DHT22;55682;51.114;5.882;2023-04-15T13:32:05;21.02;35.21
68701;DHT22;55682;51.114;5.882;2023-04-15T13:34:31;21.03;35.28
68701;DHT22;55682;51.114;5.882;2023-04-15T13:36:56;20.91;35.55
68701;DHT22;55682;51.114;5.882;2023-04-15T13:39:22;20.75;35.79
68701;DHT22;55682;51.114;5.882;2023-04-15T13:41:48;20.55;35.96
68701;DHT22;55682;51.114;5.882;2023-04-15T13:44:13;20.54;36.76
68701;DHT22;55682;51.114;5.882;2023-04-15T13:46:40;20.65;36.53
68701;DHT22;55682;51.114;5.882;2023-04-15T13:49:07;20.74;36.22
68701;DHT22;55682;51.114;5.882;2023-04-15T13:51:32;20.64;36.69
68701;DHT22;55682;51.114;5.882;2023-04-15T13:54:00;20.62;36.79
68701;DHT22;55682;51.114;5.882;2023-04-15T13:56:26;20.58;37.15
68701;DHT22;55682;51.114;5.882;2023-04-15T13:58:51;20.71;36.66
68701;DHT22;55682;51.114;5.882;2023-04-15T14:01:19;20.85;35.84
68701;DHT22;55682;51.114;5.882;2023-04-15T14:03:44;20.87;35.73
68701;DHT22;55682;51.114;5.882;2023-04-15T14:06:10;20.87;35.28
68701;DHT22;55682;51.114;5.882;2023-04-15T14:08:35;20.74;35.94
68701;DHT22;55682;51.114;5.882;2023-04-15T14:11:01;20.78;36.28
68701;DHT22;55682;51.114;5.882;2023-04-15T14:13:27;20.76;36.07
68701;DHT22;55682;51.114;5.882;2023-04-15T14:15:53;20.64;36.18
68701;DHT22;55682;51.114;5.882;2023-04-15T14:18:18;20.68;35.78
68701;DHT22;55682;51.114;5.882;2023-04-15T14:20:44;20.50;36.00
68701;DHT22;55682;51.114;5.882;2023-04-15T14:23:09;20.27;36.30
68701;DHT22;55682;51.114;5.882;2023-04-15T14:25:35;20.03;36.75
68701;DHT22;55682;51.114;5.882;2023-04-15T14:28:03;19.98;37.01
68701;DHT22;55682;51.114;5.882;2023-04-15T14:30:29;19.98;37.05
68701;DHT22;55682;51.114;5.882;2023-04-15T14:32:55;19.99;36.90
68701;DHT22;55682;51.114;5.882;2023-04-15T14:35:20;19.96;37.14
68701;DHT22;55682;51.114;5.882;2023-04-15T14:37:46;20.01;37.11
68701;DHT22;55682;51.114;5.882;2023-04-15T14:40:12;19.95;37.23
68701;DHT22;55682;51.114;5.882;2023-04-15T14:42:37;19.88;37.21
68701;DHT22;55682;51.114;5.882;2023-04-15T14:45:03;19.90;37.33
68701;DHT22;55682;51.114;5.882;2023-04-15T14:47:30;19.89;37.25
68701;DHT22;55682;51.114;5.882;2023-04-15T14:49:55;19.84;37.01
68701;DHT22;55682;51.114;5.882;2023-04-15T14:52:21;19.74;37.22
68701;DHT22;55682;51.114;5.882;2023-04-15T14:54:47;19.58;37.61
68701;DHT22;55682;51.114;5.882;2023-04-15T14:57:13;19.53;37.50
68701;DHT22;55682;51.114;5.882;2023-04-15T14:59:38;19.38;37.80
68701;DHT22;55682;51.114;5.882;2023-04-15T15:02:04;19.24;38.44
68701;DHT22;55682;51.114;5.882;2023-04-15T15:04:29;19.21;38.94
68701;DHT22;55682;51.114;5.882;2023-04-15T15:06:58;19.24;38.92
68701;DHT22;55682;51.114;5.882;2023-04-15T15:09:24;19.23;39.13
68701;DHT22;55682;51.114;5.882;2023-04-15T15:11:49;19.26;39.33
68701;DHT22;55682;51.114;5.882;2023-04-15T15:14:15;19.24;39.46
68701;DHT22;55682;51.114;5.882;2023-04-15T15:16:41;19.11;39.79
68701;DHT22;55682;51.114;5.882;2023-04-15T15:19:07;19.06;40.18
68701;DHT22;55682;51.114;5.882;2023-04-15T15:21:33;19.03;40.79
68701;DHT22;55682;51.114;5.882;2023-04-15T15:23:58;19.16;40.87
68701;DHT22;55682;51.114;5.882;2023-04-15T15:26:24;19.15;40.40
68701;DHT22;55682;51.114;5.882;2023-04-15T15:28:52;19.12;40.40
68701;DHT22;55682;51.114;5.882;2023-04-15T15:31:17;19.13;40.24
68701;DHT22;55682;51.114;5.882;2023-04-15T15:33:43;18.94;39.93
68701;DHT22;55682;51.114;5.882;2023-04-15T15:36:09;18.59;40.45
68701;DHT22;55682;51.114;5.882;2023-04-15T15:38:35;18.36;41.16
68701;DHT22;55682;51.114;5.882;2023-04-15T15:41:01;18.30;41.33
68701;DHT22;55682;51.114;5.882;2023-04-15T15:43:27;18.18;41.85
68701;DHT22;55682;51.114;5.882;2023-04-15T15:45:53;18.19;41.90
68701;DHT22;55682;51.114;5.882;2023-04-15T15:48:21;18.20;41.87
68701;DHT22;55682;51.114;5.882;2023-04-15T15:50:47;18.27;41.98